PGT2341 LTFJ-LTBJ
Flight info
| Callsign | PGT2341 |
|---|---|
| Flight time | N/A |
| Altitude | 31000 |
| Route | IVGUS1J/06L IVGUS UM19 OVZOK |
| Aircraft | A21N/M-SDE2E3FGHIRWXY/LB1 |
Departure
| Time | 2026-05-01 14:23 |
|---|---|
| Airport | Istanbul Sabiha Gökçen International Airport (LTFJ) |
Arrival
| Time | N/A |
|---|---|
| Airport | Adnan Menderes International Airport (LTBJ) |
| Time | Latitude | Longitude | Altitude | Speed | Heading |
|---|---|---|---|---|---|
| 2026-05-01 13:28 | 40.90860 | 29.31913 | 321 ft | 0 kts | 243° |
| 2026-05-01 14:09 | 40.90862 | 29.31917 | 321 ft | 2 kts | 244° |
| 2026-05-01 14:09 | 40.90868 | 29.31935 | 321 ft | 2 kts | 243° |
| 2026-05-01 14:10 | 40.90875 | 29.31953 | 321 ft | 2 kts | 244° |
| 2026-05-01 14:10 | 40.90882 | 29.31968 | 321 ft | 1 kts | 204° |
| 2026-05-01 14:10 | 40.90895 | 29.31968 | 321 ft | 1 kts | 147° |
| 2026-05-01 14:10 | 40.90905 | 29.31959 | 321 ft | 0 kts | 152° |
| 2026-05-01 14:11 | 40.90907 | 29.31957 | 321 ft | 0 kts | 154° |
| 2026-05-01 14:13 | 40.90892 | 29.31967 | 321 ft | 3 kts | 153° |
| 2026-05-01 14:13 | 40.90861 | 29.31991 | 321 ft | 14 kts | 138° |
| 2026-05-01 14:13 | 40.90833 | 29.32047 | 321 ft | 14 kts | 120° |
| 2026-05-01 14:13 | 40.90765 | 29.32101 | 321 ft | 10 kts | 154° |
| 2026-05-01 14:14 | 40.90703 | 29.32112 | 321 ft | 10 kts | 230° |
| 2026-05-01 14:14 | 40.90661 | 29.32017 | 321 ft | 13 kts | 244° |
| 2026-05-01 14:14 | 40.90587 | 29.31951 | 321 ft | 14 kts | 170° |
| 2026-05-01 14:14 | 40.90482 | 29.31990 | 321 ft | 15 kts | 192° |
| 2026-05-01 14:15 | 40.90452 | 29.31965 | 321 ft | 15 kts | 223° |
| 2026-05-01 14:15 | 40.90245 | 29.31411 | 321 ft | 21 kts | 244° |
| 2026-05-01 14:16 | 40.90200 | 29.31289 | 321 ft | 25 kts | 244° |
| 2026-05-01 14:16 | 40.90066 | 29.30916 | 321 ft | 30 kts | 245° |
| 2026-05-01 14:16 | 40.90001 | 29.30752 | 321 ft | 29 kts | 243° |
| 2026-05-01 14:16 | 40.89889 | 29.30447 | 321 ft | 25 kts | 248° |
| 2026-05-01 14:17 | 40.89816 | 29.30245 | 321 ft | 23 kts | 244° |
| 2026-05-01 14:17 | 40.89744 | 29.30047 | 321 ft | 24 kts | 245° |
| 2026-05-01 14:17 | 40.89671 | 29.29852 | 321 ft | 23 kts | 243° |
| 2026-05-01 14:17 | 40.89599 | 29.29661 | 321 ft | 22 kts | 244° |
| 2026-05-01 14:18 | 40.89531 | 29.29474 | 322 ft | 22 kts | 245° |
| 2026-05-01 14:18 | 40.89467 | 29.29301 | 322 ft | 16 kts | 233° |
| 2026-05-01 14:18 | 40.89363 | 29.29276 | 322 ft | 16 kts | 155° |
| 2026-05-01 14:18 | 40.89340 | 29.29290 | 322 ft | 0 kts | 154° |
| 2026-05-01 14:19 | 40.89339 | 29.29290 | 322 ft | 0 kts | 154° |
| 2026-05-01 14:19 | 40.89339 | 29.29291 | 322 ft | 0 kts | 154° |
| 2026-05-01 14:20 | 40.89297 | 29.29403 | 322 ft | 0 kts | 64° |
| 2026-05-01 14:22 | 40.89301 | 29.29412 | 322 ft | 1 kts | 64° |
| 2026-05-01 14:22 | 40.89301 | 29.29413 | 322 ft | 0 kts | 64° |
| 2026-05-01 14:22 | 40.89340 | 29.29519 | 322 ft | 44 kts | 64° |
| 2026-05-01 14:22 | 40.89588 | 29.30188 | 322 ft | 115 kts | 64° |
| 2026-05-01 14:23 | 40.90038 | 29.31362 | 402 ft | 162 kts | 61° |
| 2026-05-01 14:23 | 40.90568 | 29.32734 | 943 ft | 175 kts | 60° |
| 2026-05-01 14:23 | 40.91116 | 29.34188 | 1663 ft | 184 kts | 61° |
| 2026-05-01 14:23 | 40.91690 | 29.35794 | 2188 ft | 205 kts | 62° |
| 2026-05-01 14:24 | 40.92322 | 29.37548 | 2807 ft | 222 kts | 62° |
| 2026-05-01 14:24 | 40.92989 | 29.39394 | 3744 ft | 225 kts | 61° |
| 2026-05-01 14:24 | 40.93663 | 29.41245 | 4594 ft | 227 kts | 61° |
| 2026-05-01 14:24 | 40.94355 | 29.43132 | 5288 ft | 235 kts | 61° |
| 2026-05-01 14:25 | 40.95082 | 29.45116 | 5872 ft | 248 kts | 61° |
| 2026-05-01 14:25 | 40.95837 | 29.47176 | 6605 ft | 254 kts | 62° |
| 2026-05-01 14:25 | 40.96611 | 29.49295 | 7351 ft | 260 kts | 62° |
| 2026-05-01 14:25 | 40.97406 | 29.51473 | 8103 ft | 265 kts | 62° |
| 2026-05-01 14:26 | 40.98203 | 29.53655 | 8846 ft | 270 kts | 62° |
| 2026-05-01 14:26 | 40.99932 | 29.58139 | 10263 ft | 279 kts | 52° |
| 2026-05-01 14:26 | 41.01379 | 29.59914 | 10703 ft | 292 kts | 30° |
| 2026-05-01 14:27 | 41.03323 | 29.60866 | 11045 ft | 309 kts | 7° |
| 2026-05-01 14:27 | 41.05500 | 29.60746 | 11366 ft | 325 kts | 346° |
| 2026-05-01 14:27 | 41.07665 | 29.59641 | 11672 ft | 342 kts | 326° |
| 2026-05-01 14:28 | 41.10136 | 29.54198 | 12254 ft | 374 kts | 276° |
| 2026-05-01 14:28 | 41.09839 | 29.50757 | 12747 ft | 383 kts | 252° |
| 2026-05-01 14:28 | 41.08897 | 29.47490 | 13501 ft | 384 kts | 250° |
| 2026-05-01 14:28 | 41.07991 | 29.44156 | 14236 ft | 385 kts | 251° |
| 2026-05-01 14:29 | 41.07098 | 29.40782 | 14924 ft | 388 kts | 251° |
| 2026-05-01 14:29 | 41.06213 | 29.37422 | 15567 ft | 390 kts | 251° |
| 2026-05-01 14:30 | 41.03501 | 29.27176 | 17339 ft | 400 kts | 251° |
| 2026-05-01 14:30 | 41.02570 | 29.23674 | 17896 ft | 403 kts | 251° |
| 2026-05-01 14:30 | 41.01646 | 29.20200 | 18438 ft | 406 kts | 251° |
| 2026-05-01 14:31 | 40.99761 | 29.13142 | 19542 ft | 411 kts | 251° |
| 2026-05-01 14:31 | 40.98806 | 29.09576 | 20078 ft | 413 kts | 251° |
| 2026-05-01 14:31 | 40.97847 | 29.06000 | 20620 ft | 415 kts | 251° |
| 2026-05-01 14:31 | 40.96881 | 29.02398 | 21158 ft | 416 kts | 251° |
| 2026-05-01 14:32 | 40.95906 | 28.98770 | 21656 ft | 419 kts | 251° |
| 2026-05-01 14:32 | 40.95266 | 28.96390 | 21974 ft | 420 kts | 251° |
| 2026-05-01 14:32 | 40.93948 | 28.91498 | 22587 ft | 424 kts | 251° |
| 2026-05-01 14:32 | 40.92962 | 28.87846 | 22998 ft | 427 kts | 251° |
| 2026-05-01 14:33 | 40.91965 | 28.84159 | 23462 ft | 428 kts | 251° |
| 2026-05-01 14:33 | 40.90966 | 28.80465 | 23895 ft | 430 kts | 251° |
| 2026-05-01 14:33 | 40.89952 | 28.76726 | 24299 ft | 432 kts | 251° |
| 2026-05-01 14:33 | 40.88953 | 28.73054 | 24830 ft | 430 kts | 251° |
| 2026-05-01 14:34 | 40.87943 | 28.69342 | 25476 ft | 426 kts | 251° |
| 2026-05-01 14:34 | 40.86946 | 28.65683 | 25993 ft | 424 kts | 251° |
| 2026-05-01 14:34 | 40.85945 | 28.62020 | 26506 ft | 422 kts | 251° |
| 2026-05-01 14:34 | 40.84964 | 28.58429 | 27040 ft | 419 kts | 251° |
| 2026-05-01 14:35 | 40.83976 | 28.54813 | 27515 ft | 418 kts | 251° |
| 2026-05-01 14:35 | 40.83000 | 28.51248 | 27914 ft | 417 kts | 251° |
| 2026-05-01 14:35 | 40.82006 | 28.47626 | 28263 ft | 418 kts | 251° |
| 2026-05-01 14:35 | 40.81024 | 28.44054 | 28578 ft | 419 kts | 251° |
| 2026-05-01 14:36 | 40.80042 | 28.40482 | 28952 ft | 419 kts | 251° |
| 2026-05-01 14:36 | 40.79048 | 28.36873 | 29151 ft | 421 kts | 251° |
| 2026-05-01 14:36 | 40.78041 | 28.33223 | 29160 ft | 422 kts | 251° |
| 2026-05-01 14:37 | 40.76066 | 28.26083 | 29156 ft | 421 kts | 250° |
| 2026-05-01 14:37 | 40.74062 | 28.18858 | 29168 ft | 420 kts | 251° |
| 2026-05-01 14:38 | 40.72077 | 28.11722 | 29151 ft | 420 kts | 251° |
| 2026-05-01 14:38 | 40.70061 | 28.04494 | 29150 ft | 419 kts | 251° |
| 2026-05-01 14:39 | 40.68055 | 27.97323 | 29165 ft | 419 kts | 251° |
| 2026-05-01 14:39 | 40.66083 | 27.90287 | 29158 ft | 419 kts | 251° |
| 2026-05-01 14:40 | 40.64036 | 27.83008 | 29151 ft | 419 kts | 251° |
| 2026-05-01 14:40 | 40.62014 | 27.75841 | 29150 ft | 418 kts | 251° |
| 2026-05-01 14:41 | 40.60015 | 27.68819 | 29148 ft | 419 kts | 249° |
| 2026-05-01 14:41 | 40.58583 | 27.65482 | 29134 ft | 423 kts | 236° |
| 2026-05-01 14:41 | 40.56559 | 27.62697 | 29152 ft | 427 kts | 223° |
| 2026-05-01 14:41 | 40.54311 | 27.60743 | 29150 ft | 435 kts | 212° |
| 2026-05-01 14:42 | 40.51267 | 27.59272 | 29130 ft | 444 kts | 198° |
| 2026-05-01 14:42 | 40.48158 | 27.58876 | 29138 ft | 455 kts | 184° |
| 2026-05-01 14:42 | 40.44943 | 27.59197 | 29152 ft | 457 kts | 181° |
| 2026-05-01 14:43 | 40.38738 | 27.59908 | 29130 ft | 456 kts | 183° |
| 2026-05-01 14:43 | 40.32426 | 27.59782 | 29137 ft | 448 kts | 191° |
| 2026-05-01 14:44 | 40.26308 | 27.58728 | 29143 ft | 444 kts | 194° |
| 2026-05-01 14:44 | 40.17149 | 27.56960 | 29130 ft | 444 kts | 195° |
| 2026-05-01 14:45 | 40.14112 | 27.56376 | 29125 ft | 443 kts | 195° |